Flight Track Log - Related Links

Times and Time Zones

All times are in EST time to prevent confusion due to time zone crossing. See the EJA122 flight status page for this flight to view local times or setup timezone preferences in your user account.

Time Position Orientation Groundspeed Altitude Reporting Facility
EST Latitude Longitude Course Direction KTS MPH feet Rate Location/Type
Mon 07:30:00 AM 38.9266 -83.0189 178° South  Level Estimated
Mon 07:31:00 AM 38.8113 -83.0135 178° South  Level Estimated
Mon 07:32:00 AM 38.6960 -83.0082 178° South  Level Estimated
Mon 07:33:00 AM 38.5807 -83.0029 178° South  Level Estimated
Mon 07:34:00 AM 38.4653 -82.9977 178° South  Level Estimated
Mon 07:35:00 AM 38.3500 -82.9924 178° South  Level Estimated
Mon 07:36:00 AM 38.2347 -82.9872 178° South  Level Estimated
Mon 07:37:00 AM 38.1194 -82.9819 178° South  Level Estimated
Mon 07:38:00 AM 38.0040 -82.9767 178° South  Level Estimated
Mon 07:39:00 AM 37.8887 -82.9715 178° South  Level Estimated
Mon 07:40:00 AM 37.7734 -82.9663 178° South  Level Estimated
Mon 07:41:00 AM 37.6580 -82.9612 178° South  Level Estimated
Mon 07:42:00 AM 37.5427 -82.9560 178° South  Level Estimated
Mon 07:43:00 AM 37.4274 -82.9509 178° South  Level Estimated
Mon 07:44:00 AM 37.3120 -82.9458 178° South  Level Estimated
Mon 07:45:00 AM 37.1967 -82.9407 178° South  Level Estimated
Mon 07:46:00 AM 37.0814 -82.9356 178° South  Level Estimated
Mon 07:47:00 AM 36.9660 -82.9305 178° South  Level Estimated
Mon 07:48:00 AM 36.8507 -82.9255 178° South  Level Estimated
Mon 07:49:00 AM 36.7354 -82.9204 178° South  Level Estimated
Mon 07:50:00 AM 36.6201 -82.9154 178° South  Level Estimated
Mon 07:51:00 AM 36.5047 -82.9104 178° South  Level Estimated
Mon 07:52:00 AM 36.3894 -82.9054 178° South  Level Estimated
Mon 07:53:00 AM 36.2741 -82.9005 178° South  Level Estimated
Mon 07:54:00 AM 36.1587 -82.8955 178° South  Level Estimated
Mon 07:55:00 AM 36.0434 -82.8905 178° South  Level Estimated
Mon 07:56:00 AM 35.9281 -82.8856 178° South  Level Estimated
Mon 07:57:00 AM 35.8128 -82.8807 178° South  Level Estimated
Mon 07:58:00 AM 35.6974 -82.8758 178° South  Level Estimated
Mon 07:59:00 AM 35.5821 -82.8709 178° South  Level Estimated
Mon 08:00:00 AM 35.4668 -82.8660 178° South  Level Estimated
Mon 08:01:00 AM 35.3514 -82.8612 178° South  Level Estimated
Mon 08:02:00 AM 35.2361 -82.8563 178° South  Level Estimated
Mon 08:03:00 AM 35.1208 -82.8515 178° South  Level Estimated
Mon 08:04:00 AM 35.0054 -82.8466 178° South  Level Estimated
Mon 08:05:00 AM 34.8901 -82.8418 178° South  Level Estimated
Mon 08:06:00 AM 34.7748 -82.8370 178° South  Level Estimated
Mon 08:07:00 AM 34.6595 -82.8323 178° South  Level Estimated
Mon 08:08:00 AM 34.5441 -82.8275 178° South  Level Estimated
Mon 08:09:00 AM 34.4288 -82.8227 178° South  Level Estimated
Mon 08:10:00 AM 34.3135 -82.8180 178° South  Level Estimated
Mon 08:11:00 AM 34.1981 -82.8133 178° South  Level Estimated
Mon 08:12:00 AM 34.0828 -82.8085 178° South  Level Estimated
Mon 08:13:00 AM 33.9675 -82.8038 178° South  Level Estimated
Mon 08:14:00 AM 33.8521 -82.7991 178° South  Level Estimated
Mon 08:15:00 AM 33.7368 -82.7945 178° South  Level Estimated
Mon 08:16:00 AM 33.6215 -82.7898 178° South  Level Estimated
Mon 08:17:00 AM 33.5061 -82.7851 178° South  Level Estimated
Mon 08:18:00 AM 33.3908 -82.7805 178° South  Level Estimated
Mon 08:19:00 AM 33.2755 -82.7759 178° South  Level Estimated
Mon 08:20:00 AM 33.1689 -82.7716 178° South  Level Estimated
Mon 08:21:00 AM 33.0623 -82.7673 178° South  Level Estimated
Mon 08:22:00 AM 32.9557 -82.7631 178° South  Level Estimated
Mon 08:23:00 AM 32.8490 -82.7589 178° South  Level Estimated
Mon 08:24:00 AM 32.7424 -82.7546 178° South  Level Estimated
Mon 08:25:00 AM 32.6358 -82.7504 178° South  Level Estimated
Mon 08:26:00 AM 32.5292 -82.7462 178° South  Level Estimated
Mon 08:27:00 AM 32.4226 -82.7420 178° South  Level Estimated
Mon 08:28:00 AM 32.3160 -82.7378 178° South  Level Estimated
Mon 08:29:00 AM 32.2094 -82.7336 178° South  Level Estimated
Mon 08:30:00 AM 32.1028 -82.7295 178° South  Level Estimated
Mon 08:31:00 AM 31.9962 -82.7253 178° South  Level Estimated
Mon 08:32:00 AM 31.8896 -82.7212 178° South  Level Estimated
Mon 08:33:00 AM 31.7829 -82.7170 178° South  Level Estimated
Mon 08:34:00 AM 31.6763 -82.7129 178° South  Level Estimated
Mon 08:35:00 AM 31.5697 -82.7088 178° South  Level Estimated
Mon 08:36:00 AM 31.4631 -82.7047 178° South  Level Estimated
Mon 08:37:00 AM 31.3565 -82.7005 178° South  Level Estimated
Mon 08:38:00 AM 31.2499 -82.6965 178° South  Level Estimated
Mon 08:39:00 AM 31.1433 -82.6924 178° South  Level Estimated
Mon 08:40:00 AM 31.0367 -82.6883 178° South  Level Estimated
Mon 08:41:00 AM 30.9301 -82.6842 178° South  Level Estimated
Mon 08:42:00 AM 30.8235 -82.6802 178° South  Level Estimated
Mon 08:43:00 AM 30.7169 -82.6762 178° South  Level Estimated
Mon 08:44:00 AM 30.6102 -82.6721 178° South  Level Estimated
Mon 08:45:00 AM 30.5036 -82.6681 178° South  Level Estimated
Mon 08:46:00 AM 30.3970 -82.6641 178° South  Level Estimated
Mon 08:47:00 AM 30.2904 -82.6601 178° South  Level Estimated
Mon 08:48:00 AM 30.1838 -82.6561 178° South  Level Estimated
Mon 08:49:00 AM 30.0772 -82.6521 178° South  Level Estimated
Mon 08:50:00 AM 29.9706 -82.6481 178° South  Level Estimated
Mon 08:51:00 AM 29.8639 -82.6441 178° South  Level Estimated
Mon 08:52:00 AM 29.7573 -82.6402 178° South  Level Estimated
Mon 08:53:00 AM 29.6507 -82.6362 178° South  Level Estimated
Mon 08:54:00 AM 29.5441 -82.6322 178° South  Level Estimated
Mon 08:55:00 AM 29.4375 -82.6283 178° South  Level Estimated
Mon 08:56:00 AM 29.3308 -82.6244 178° South  Level Estimated
Mon 08:57:00 AM 29.2242 -82.6205 178° South  Level Estimated
Mon 08:58:00 AM 29.1176 -82.6165 178° South  Level Estimated
Mon 08:59:00 AM 29.0110 -82.6126 178° South  Level Estimated
Mon 09:00:00 AM 28.9044 -82.6087 178° South  Level Estimated
Mon 09:01:00 AM 28.7977 -82.6048 178° South  Level Estimated
Mon 09:02:00 AM 28.6911 -82.6010 178° South  Level Estimated
Mon 09:03:00 AM 28.5845 -82.5971 178° South  Level Estimated
Mon 09:04:00 AM 28.4779 -82.5932 178° South  Level Estimated
Mon 09:05:00 AM 28.3713 -82.5893 178° South  Level Estimated
Mon 09:06:00 AM 28.2646 -82.5855 178° South  Level Estimated
Mon 09:07:00 AM 28.1580 -82.5817 178° South  Level Estimated
Mon 09:08:00 AM 28.0514 -82.5778 178° South  Level Estimated
Mon 09:09:00 AM 27.9448 -82.5740 178° South  Level Estimated
Mon 09:10:00 AM 27.8382 -82.5702 178° South  Level Estimated
Mon 09:11:00 AM 27.7315 -82.5664 178° South  Level Estimated
Mon 09:12:00 AM 27.6249 -82.5626 178° South  Level Estimated
Mon 09:13:00 AM 27.5183 -82.5587 178° South  Level Estimated
Mon 09:14:00 AM 27.4117 -82.5550 178° South  Level Estimated
Mon 09:15:00 AM 27.3954 -82.5544 178° South  Level Estimated
Mon 09:16:00 AM 27.3954 -82.5544 13° North  Level Estimated
Mon 09:17:00 AM 27.3954 -82.5544 13° North  Level Estimated
Mon 09:18:00 AM 27.3954 -82.5544 13° North  Level Estimated
Mon 09:19:00 AM 27.3954 -82.5544 13° North  Level Estimated
Mon 09:20:00 AM 27.3954 -82.5544 13° North  Level Estimated
Mon 09:21:00 AM 27.3954 -82.5544 13° North  Level Estimated
Mon 09:22:00 AM 27.3954 -82.5544 13° North  Level Estimated
Mon 09:23:00 AM 27.3954 -82.5544 13° North  Level Estimated
Mon 09:24:00 AM 27.3954 -82.5544 13° North  Level Estimated
Mon 09:25:00 AM 27.3954 -82.5544 13° North  Level Estimated
Mon 09:26:00 AM 27.3954 -82.5544 13° North  Level Estimated
Mon 09:27:00 AM 27.3954 -82.5544 13° North  Level Estimated
Mon 09:28:00 AM 27.3954 -82.5544 13° North  Level Estimated
Mon 09:29:00 AM 27.3954 -82.5544 13° North  Level Estimated
Mon 09:30:00 AM 27.3954 -82.5544 13° North  Level Estimated

Login

Don't have an account? Register now (free) for customized features, flight alerts, and more!